Terminal Aerodrome Forecast
Issued by NWS

Home | Current Version | Previous Version | Text Only | Print | Product List | Glossary On
Versions: 1 2 3 4 5 6 7 8 9 10 11 12 13
705
FTUS44 KBMX 101132
TAFTOI
TAF
KTOI 101132Z 1012/1112 00000KT P6SM SKC
     FM101500 04006KT P6SM SKC
     FM110000 00000KT P6SM SKC
     FM111000 09002KT P6SM OVC050=

USA.gov is the U.S. government's official web portal to all federal, state and local government web resources and services.